Aviation Digital Data Service (ADDS)

Output produced by TAFs form (0400 UTC 23 September 2017)
found at http://www.aviationweather.gov/adds/tafs/
 
KMSP 230321Z 2303/2406 18014KT P6SM BKN150 WS020/21050KT 
     FM230700 18009KT P6SM SCT120 BKN250 
     FM231700 18010KT P6SM SCT050
       
KRNH 222335Z 2300/2324 17010KT P6SM SCT150 
     FM230200 18010KT P6SM SCT150 WS020/20050KT 
     FM230800 19007KT P6SM SCT120 BKN250 
     FM231700 19009KT P6SM SCT050